Time;durP1;ratioP1;P1;durP2;ratioP2;P2;SDS_P1;SDS_P2;PMS_P1;PMS_P2;Temp;Humidity;BMP_temperature;BMP_pressure;BME280_temperature;BME280_humidity;BME280_pressure;Samples;Min_cycle;Max_cycle;Signal;HPM_P1;HPM_P2
2022/03/06 00:00:54;;;;;;;20.83;11.02;;;;;;;;;;6207902;28;20125;-71
2022/03/06 00:03:56;;;;;;;18.60;10.05;;;;;;;;;;6208755;28;20038;-71
2022/03/06 00:06:57;;;;;;;17.85;9.52;;;;;;;;;;6209718;28;20137;-70
2022/03/06 00:10:00;;;;;;;19.30;10.68;;;;;;;;;;6209108;28;20061;-72
2022/03/06 00:13:02;;;;;;;17.83;10.15;;;;;;;;;;6207372;28;20636;-70
2022/03/06 00:16:04;;;;;;;15.68;9.52;;;;;;;;;;6209579;28;20133;-70
2022/03/06 00:19:06;;;;;;;19.33;10.38;;;;;;;;;;6205664;28;20109;-70
2022/03/06 00:22:08;;;;;;;16.95;10.73;;;;;;;;;;6208036;28;20109;-71
2022/03/06 00:25:11;;;;;;;17.65;9.40;;;;;;;;;;6207172;28;20172;-72
2022/03/06 00:28:13;;;;;;;16.63;10.20;;;;;;;;;;6211964;28;20090;-69
2022/03/06 00:31:14;;;;;;;16.63;9.20;;;;;;;;;;6209693;28;20125;-69
2022/03/06 00:34:17;;;;;;;17.80;9.32;;;;;;;;;;6208848;28;20050;-70
2022/03/06 00:37:18;;;;;;;14.68;9.50;;;;;;;;;;6206009;28;20180;-71
2022/03/06 00:40:21;;;;;;;15.90;9.23;;;;;;;;;;6204024;28;20042;-70
2022/03/06 00:43:23;;;;;;;14.52;9.07;;;;;;;;;;6206458;28;20057;-71
2022/03/06 00:46:24;;;;;;;15.68;8.77;;;;;;;;;;6212804;28;20095;-70
2022/03/06 00:49:26;;;;;;;16.67;9.30;;;;;;;;;;6208019;28;20061;-72
2022/03/06 00:52:28;;;;;;;16.55;9.60;;;;;;;;;;6206150;28;20168;-69
2022/03/06 00:55:31;;;;;;;13.07;8.70;;;;;;;;;;6205748;28;20072;-72
2022/03/06 00:58:33;;;;;;;19.92;8.65;;;;;;;;;;6207012;28;20065;-71
2022/03/06 01:01:35;;;;;;;17.48;9.55;;;;;;;;;;6206275;28;20058;-71
2022/03/06 01:04:37;;;;;;;18.25;9.75;;;;;;;;;;6202825;28;20169;-70
2022/03/06 01:07:39;;;;;;;16.48;9.48;;;;;;;;;;6207942;28;20046;-70
2022/03/06 01:10:44;;;;;;;18.08;10.00;;;;;;;;;;6212393;28;20486;-70
2022/03/06 01:13:46;;;;;;;17.50;9.73;;;;;;;;;;6208448;28;20353;-69
2022/03/06 01:16:47;;;;;;;27.33;10.55;;;;;;;;;;6211451;28;20084;-71
2022/03/06 01:19:49;;;;;;;18.92;10.45;;;;;;;;;;6214152;28;20229;-69
2022/03/06 01:22:52;;;;;;;17.63;10.23;;;;;;;;;;6213033;28;20046;-71
2022/03/06 01:25:55;;;;;;;18.48;10.00;;;;;;;;;;6211293;28;20555;-68
2022/03/06 01:28:57;;;;;;;17.92;10.50;;;;;;;;;;6213185;28;20089;-70
2022/03/06 01:31:58;;;;;;;18.67;10.40;;;;;;;;;;6207933;28;20053;-70
2022/03/06 01:35:00;;;;;;;19.23;10.43;;;;;;;;;;6210008;28;20188;-70
2022/03/06 01:38:01;;;;;;;21.02;11.77;;;;;;;;;;6209895;28;20133;-70
2022/03/06 01:41:04;;;;;;;20.48;11.65;;;;;;;;;;6206055;28;20595;-70
2022/03/06 01:44:12;;;;;;;20.10;11.10;;;;;;;;;;6207281;28;20058;-70
2022/03/06 01:47:13;;;;;;;20.38;11.98;;;;;;;;;;6210139;28;20050;-70
2022/03/06 01:50:17;;;;;;;20.35;11.93;;;;;;;;;;6209349;28;20051;-70
2022/03/06 01:53:20;;;;;;;20.13;11.55;;;;;;;;;;6218672;28;20241;-70
2022/03/06 01:56:23;;;;;;;22.00;12.02;;;;;;;;;;6217003;28;20049;-70
2022/03/06 01:59:25;;;;;;;20.27;12.18;;;;;;;;;;6211385;28;20523;-70
2022/03/06 02:02:27;;;;;;;22.15;12.57;;;;;;;;;;6210046;28;20125;-70
2022/03/06 02:05:28;;;;;;;23.15;12.55;;;;;;;;;;6210356;28;20133;-70
2022/03/06 02:08:30;;;;;;;23.33;11.82;;;;;;;;;;6210977;28;20132;-69
2022/03/06 02:11:33;;;;;;;20.63;11.90;;;;;;;;;;6214332;28;20050;-69
2022/03/06 02:14:34;;;;;;;22.25;12.40;;;;;;;;;;6212224;28;20078;-70
2022/03/06 02:17:37;;;;;;;21.95;12.25;;;;;;;;;;6208988;28;20054;-70
2022/03/06 02:20:39;;;;;;;20.10;11.65;;;;;;;;;;6209707;28;20053;-70
2022/03/06 02:23:42;;;;;;;22.58;12.27;;;;;;;;;;6205181;28;20050;-70
2022/03/06 02:26:44;;;;;;;20.58;11.75;;;;;;;;;;6220285;28;20085;-70
2022/03/06 02:29:46;;;;;;;19.70;12.45;;;;;;;;;;6223468;28;20609;-72
2022/03/06 02:32:49;;;;;;;17.25;11.70;;;;;;;;;;6218028;28;20129;-70
2022/03/06 02:35:51;;;;;;;21.65;12.65;;;;;;;;;;6216378;28;20077;-70
2022/03/06 02:38:54;;;;;;;24.58;12.50;;;;;;;;;;6214518;28;20061;-70
2022/03/06 02:41:56;;;;;;;21.90;11.55;;;;;;;;;;6214675;28;20072;-70
2022/03/06 02:44:59;;;;;;;19.15;11.10;;;;;;;;;;6209459;28;20120;-70
2022/03/06 02:48:01;;;;;;;19.98;11.68;;;;;;;;;;6210325;28;20042;-72
2022/03/06 02:51:02;;;;;;;21.13;11.38;;;;;;;;;;6212668;28;20161;-69
2022/03/06 02:54:06;;;;;;;21.52;11.48;;;;;;;;;;6210063;28;20588;-70
2022/03/06 02:57:08;;;;;;;19.88;11.18;;;;;;;;;;6211418;28;20046;-71
2022/03/06 03:00:11;;;;;;;20.42;10.52;;;;;;;;;;6212682;28;20200;-70
2022/03/06 03:03:13;;;;;;;21.15;11.23;;;;;;;;;;6216621;28;20045;-70
2022/03/06 03:06:15;;;;;;;18.48;10.65;;;;;;;;;;6209388;28;20177;-70
2022/03/06 03:09:19;;;;;;;19.38;10.57;;;;;;;;;;6218124;28;20127;-70
2022/03/06 03:12:21;;;;;;;17.50;10.25;;;;;;;;;;6209351;28;20042;-70
2022/03/06 03:15:23;;;;;;;20.95;11.32;;;;;;;;;;6211860;28;20116;-70
2022/03/06 03:18:25;;;;;;;17.60;10.75;;;;;;;;;;6213759;28;20137;-70
2022/03/06 03:21:26;;;;;;;18.35;10.30;;;;;;;;;;6212862;28;20053;-70
2022/03/06 03:24:30;;;;;;;20.25;10.60;;;;;;;;;;6210963;28;20054;-70
2022/03/06 03:27:31;;;;;;;21.27;11.18;;;;;;;;;;6205892;28;20054;-70
2022/03/06 03:30:33;;;;;;;21.20;10.75;;;;;;;;;;6213317;28;20096;-70
2022/03/06 03:33:34;;;;;;;20.88;11.55;;;;;;;;;;6208155;28;20136;-70
2022/03/06 03:36:36;;;;;;;18.23;10.30;;;;;;;;;;6211362;28;20042;-70
2022/03/06 03:39:39;;;;;;;21.20;11.18;;;;;;;;;;6210999;28;20493;-72
2022/03/06 03:42:41;;;;;;;18.05;11.10;;;;;;;;;;6211501;28;20042;-70
2022/03/06 03:45:42;;;;;;;23.27;10.73;;;;;;;;;;6207165;28;20463;-70
2022/03/06 03:48:44;;;;;;;21.92;10.30;;;;;;;;;;6213025;28;20072;-70
2022/03/06 03:51:45;;;;;;;18.10;10.93;;;;;;;;;;6214081;28;20103;-71
2022/03/06 03:54:48;;;;;;;17.23;10.75;;;;;;;;;;6211552;28;20201;-70
2022/03/06 03:57:50;;;;;;;22.30;12.27;;;;;;;;;;6209925;28;20082;-70
2022/03/06 04:00:52;;;;;;;22.10;11.18;;;;;;;;;;6209837;28;20119;-71
2022/03/06 04:03:53;;;;;;;18.98;10.90;;;;;;;;;;6211184;28;20053;-74
2022/03/06 04:06:56;;;;;;;20.23;11.38;;;;;;;;;;6206002;28;20053;-71
2022/03/06 04:09:59;;;;;;;22.35;12.13;;;;;;;;;;6209919;28;20054;-72
2022/03/06 04:13:00;;;;;;;22.70;11.43;;;;;;;;;;6209522;28;20034;-73
2022/03/06 04:16:02;;;;;;;21.15;11.23;;;;;;;;;;6213008;28;20072;-71
2022/03/06 04:19:04;;;;;;;19.70;11.93;;;;;;;;;;6209105;28;20455;-71
2022/03/06 04:22:06;;;;;;;21.00;11.60;;;;;;;;;;6207409;28;20188;-74
2022/03/06 04:25:09;;;;;;;21.00;11.35;;;;;;;;;;6211551;28;20054;-75
2022/03/06 04:28:11;;;;;;;19.77;10.60;;;;;;;;;;6211345;28;20062;-72
2022/03/06 04:31:13;;;;;;;18.80;10.55;;;;;;;;;;6209266;28;20046;-72
2022/03/06 04:34:14;;;;;;;21.20;11.38;;;;;;;;;;6210536;28;20133;-72
2022/03/06 04:37:16;;;;;;;21.38;11.43;;;;;;;;;;6208477;28;20058;-75
2022/03/06 04:40:19;;;;;;;17.85;10.95;;;;;;;;;;6210888;28;20086;-75
2022/03/06 04:43:20;;;;;;;22.58;10.65;;;;;;;;;;6204207;28;20050;-75
2022/03/06 04:46:22;;;;;;;21.27;10.98;;;;;;;;;;6209752;28;20038;-76
2022/03/06 04:49:24;;;;;;;19.45;11.68;;;;;;;;;;6209690;28;20092;-76
2022/03/06 04:52:25;;;;;;;18.77;11.25;;;;;;;;;;6210283;28;20072;-75
2022/03/06 04:55:28;;;;;;;19.10;10.57;;;;;;;;;;6207840;28;20100;-73
2022/03/06 04:58:30;;;;;;;23.77;11.23;;;;;;;;;;6205189;28;20540;-73
2022/03/06 05:01:32;;;;;;;21.10;10.95;;;;;;;;;;6205276;28;20188;-73
2022/03/06 05:04:34;;;;;;;18.23;10.25;;;;;;;;;;6205688;28;20074;-71
2022/03/06 05:07:35;;;;;;;19.80;10.68;;;;;;;;;;6210658;28;20077;-72
2022/03/06 05:10:38;;;;;;;18.63;10.70;;;;;;;;;;6209346;28;20196;-72
2022/03/06 05:13:40;;;;;;;22.55;10.73;;;;;;;;;;6205411;28;20188;-73
2022/03/06 05:16:41;;;;;;;18.98;10.68;;;;;;;;;;6207098;28;20129;-73
2022/03/06 05:19:43;;;;;;;18.95;10.68;;;;;;;;;;6210009;28;20181;-73
2022/03/06 05:22:44;;;;;;;20.13;10.85;;;;;;;;;;6207665;28;20129;-73
2022/03/06 05:25:47;;;;;;;20.13;10.98;;;;;;;;;;6214688;28;20156;-73
2022/03/06 05:28:49;;;;;;;22.25;11.68;;;;;;;;;;6211911;28;20064;-73
2022/03/06 05:31:51;;;;;;;19.33;10.95;;;;;;;;;;6205883;28;20133;-73
2022/03/06 05:34:52;;;;;;;23.52;11.45;;;;;;;;;;6206733;28;20125;-72
2022/03/06 05:37:54;;;;;;;23.40;10.98;;;;;;;;;;6206294;28;20042;-73
2022/03/06 05:40:57;;;;;;;18.85;10.95;;;;;;;;;;6205524;28;20136;-72
2022/03/06 05:43:59;;;;;;;21.40;11.55;;;;;;;;;;6208107;28;20111;-72
2022/03/06 05:47:00;;;;;;;18.02;9.90;;;;;;;;;;6210607;28;20038;-72
2022/03/06 05:50:02;;;;;;;23.67;10.80;;;;;;;;;;6209458;28;20227;-72
2022/03/06 05:53:04;;;;;;;17.38;10.23;;;;;;;;;;6209014;28;20129;-71
2022/03/06 05:56:07;;;;;;;22.33;11.52;;;;;;;;;;6214283;28;20137;-72
2022/03/06 05:59:08;;;;;;;23.98;11.50;;;;;;;;;;6212399;28;20561;-71
2022/03/06 06:02:10;;;;;;;18.40;11.23;;;;;;;;;;6207097;28;20165;-73
2022/03/06 06:05:12;;;;;;;19.67;11.75;;;;;;;;;;6214411;28;20084;-74
2022/03/06 06:08:13;;;;;;;25.33;11.93;;;;;;;;;;6209397;28;20405;-72
2022/03/06 06:11:17;;;;;;;22.17;11.30;;;;;;;;;;6208209;28;20569;-72
2022/03/06 06:14:19;;;;;;;20.85;11.38;;;;;;;;;;6209122;28;20038;-72
2022/03/06 06:17:21;;;;;;;19.92;10.82;;;;;;;;;;6211000;28;20050;-72
2022/03/06 06:20:22;;;;;;;20.50;11.13;;;;;;;;;;6205936;28;20101;-73
2022/03/06 06:23:24;;;;;;;18.25;10.57;;;;;;;;;;6209777;28;20046;-72
2022/03/06 06:26:27;;;;;;;20.00;10.73;;;;;;;;;;6208572;28;20134;-73
2022/03/06 06:29:28;;;;;;;22.38;10.80;;;;;;;;;;6209562;28;20387;-72
2022/03/06 06:32:30;;;;;;;21.45;10.65;;;;;;;;;;6215275;28;20161;-73
2022/03/06 06:35:32;;;;;;;18.80;10.40;;;;;;;;;;6211747;28;20164;-72
2022/03/06 06:38:34;;;;;;;19.35;11.07;;;;;;;;;;6209762;28;20052;-73
2022/03/06 06:41:37;;;;;;;19.02;11.75;;;;;;;;;;6208826;28;20061;-73
2022/03/06 06:44:38;;;;;;;21.20;10.95;;;;;;;;;;6209653;28;20144;-72
2022/03/06 06:47:40;;;;;;;19.88;11.10;;;;;;;;;;6205118;28;20070;-72
2022/03/06 06:50:42;;;;;;;19.70;11.27;;;;;;;;;;6205648;28;20237;-72
2022/03/06 06:53:44;;;;;;;26.02;11.30;;;;;;;;;;6206282;28;20100;-73
2022/03/06 06:56:46;;;;;;;20.02;11.77;;;;;;;;;;6209532;28;20136;-73
2022/03/06 06:59:48;;;;;;;20.55;11.77;;;;;;;;;;6208981;28;20081;-72
2022/03/06 07:02:50;;;;;;;20.05;11.10;;;;;;;;;;6214115;28;20057;-72
2022/03/06 07:05:51;;;;;;;20.20;11.48;;;;;;;;;;6217740;28;20129;-73
2022/03/06 07:08:53;;;;;;;17.67;11.25;;;;;;;;;;6214979;28;20115;-72
2022/03/06 07:11:56;;;;;;;19.90;11.15;;;;;;;;;;6212611;28;20128;-72
2022/03/06 07:14:57;;;;;;;19.60;11.50;;;;;;;;;;6212501;28;20057;-72
2022/03/06 07:17:59;;;;;;;25.80;11.52;;;;;;;;;;6205841;28;20128;-72
2022/03/06 07:21:02;;;;;;;20.88;11.50;;;;;;;;;;6211042;28;20065;-72
2022/03/06 07:24:04;;;;;;;20.70;11.43;;;;;;;;;;6210465;28;20661;-72
2022/03/06 07:27:07;;;;;;;20.02;10.88;;;;;;;;;;6207255;28;20524;-72
2022/03/06 07:30:10;;;;;;;19.98;10.80;;;;;;;;;;6206197;28;20046;-72
2022/03/06 07:33:12;;;;;;;19.70;10.77;;;;;;;;;;6206316;28;20509;-72
2022/03/06 07:36:13;;;;;;;21.08;10.85;;;;;;;;;;6203313;28;20050;-72
2022/03/06 07:39:15;;;;;;;21.00;10.77;;;;;;;;;;6203530;28;20129;-72
2022/03/06 07:42:18;;;;;;;22.15;11.45;;;;;;;;;;6213835;28;20132;-72
2022/03/06 07:45:19;;;;;;;19.25;12.15;;;;;;;;;;6213704;28;20085;-72
2022/03/06 07:48:21;;;;;;;22.35;11.30;;;;;;;;;;6214998;28;20589;-73
2022/03/06 07:51:22;;;;;;;19.85;11.20;;;;;;;;;;6214964;28;20111;-72
2022/03/06 07:54:24;;;;;;;19.55;10.98;;;;;;;;;;6212946;28;20133;-72
2022/03/06 07:57:27;;;;;;;20.58;11.88;;;;;;;;;;6208939;28;20077;-72
2022/03/06 08:00:28;;;;;;;20.52;11.63;;;;;;;;;;6207998;28;20132;-72
2022/03/06 08:03:30;;;;;;;19.55;11.05;;;;;;;;;;6208078;28;20482;-72
2022/03/06 08:06:32;;;;;;;21.23;11.40;;;;;;;;;;6206795;28;20054;-72
2022/03/06 08:09:33;;;;;;;19.38;11.30;;;;;;;;;;6206322;28;20096;-75
2022/03/06 08:12:36;;;;;;;18.08;10.45;;;;;;;;;;6204629;28;20154;-71
2022/03/06 08:15:38;;;;;;;19.33;10.98;;;;;;;;;;6204794;28;20050;-70
2022/03/06 08:18:39;;;;;;;18.23;11.70;;;;;;;;;;6205579;28;20100;-72
2022/03/06 08:21:42;;;;;;;21.40;11.73;;;;;;;;;;6207047;28;20081;-73
2022/03/06 08:24:43;;;;;;;22.92;11.88;;;;;;;;;;6207217;28;20686;-72
2022/03/06 08:27:46;;;;;;;18.52;11.20;;;;;;;;;;6211451;28;20046;-73
2022/03/06 08:30:48;;;;;;;25.00;11.68;;;;;;;;;;6210039;28;20438;-73
2022/03/06 08:33:50;;;;;;;18.10;11.52;;;;;;;;;;6209009;28;20073;-73
2022/03/06 08:36:52;;;;;;;22.77;12.25;;;;;;;;;;6207351;28;20140;-73
2022/03/06 08:39:53;;;;;;;19.67;11.30;;;;;;;;;;6205592;28;20520;-74
2022/03/06 08:42:56;;;;;;;18.80;11.27;;;;;;;;;;6205705;28;20529;-74
2022/03/06 08:45:58;;;;;;;22.92;12.82;;;;;;;;;;6202061;28;20497;-73
2022/03/06 08:48:59;;;;;;;21.77;11.07;;;;;;;;;;6204027;28;20074;-74
2022/03/06 08:52:01;;;;;;;20.02;10.45;;;;;;;;;;6208454;28;20045;-74
2022/03/06 08:55:03;;;;;;;17.45;10.73;;;;;;;;;;6207182;28;20125;-75
2022/03/06 08:58:06;;;;;;;15.63;9.75;;;;;;;;;;6208177;28;20156;-73
2022/03/06 09:01:08;;;;;;;15.88;10.38;;;;;;;;;;6203529;28;20053;-73
2022/03/06 09:04:09;;;;;;;18.58;10.85;;;;;;;;;;6199301;28;20054;-72
2022/03/06 09:07:11;;;;;;;18.38;9.95;;;;;;;;;;6204783;28;20129;-73
2022/03/06 09:10:12;;;;;;;19.20;10.38;;;;;;;;;;6206825;28;20129;-74
2022/03/06 09:13:15;;;;;;;16.80;10.10;;;;;;;;;;6207560;28;20081;-73
2022/03/06 09:16:17;;;;;;;15.05;10.32;;;;;;;;;;6205420;28;20057;-74
2022/03/06 09:19:18;;;;;;;16.27;10.00;;;;;;;;;;6205772;28;20456;-73
2022/03/06 09:22:20;;;;;;;17.38;10.80;;;;;;;;;;6199212;28;20124;-74
2022/03/06 09:25:22;;;;;;;18.40;9.88;;;;;;;;;;6202491;28;20185;-72
2022/03/06 09:28:25;;;;;;;17.40;9.73;;;;;;;;;;6207516;28;20054;-72
2022/03/06 09:31:27;;;;;;;15.95;9.55;;;;;;;;;;6206405;28;20058;-73
2022/03/06 09:34:29;;;;;;;17.50;9.55;;;;;;;;;;6204924;28;20046;-72
2022/03/06 09:37:33;;;;;;;16.55;9.80;;;;;;;;;;6203468;28;20128;-72
2022/03/06 09:40:35;;;;;;;16.63;9.27;;;;;;;;;;6200669;28;20137;-72
2022/03/06 09:43:38;;;;;;;14.43;8.38;;;;;;;;;;6203163;28;20062;-72
2022/03/06 09:46:41;;;;;;;14.70;9.33;;;;;;;;;;6207611;28;20148;-73
2022/03/06 09:49:44;;;;;;;18.77;8.88;;;;;;;;;;6206964;28;20460;-72
2022/03/06 09:52:46;;;;;;;11.77;8.40;;;;;;;;;;6206807;28;20317;-72
2022/03/06 09:55:48;;;;;;;13.48;8.90;;;;;;;;;;6205708;28;20047;-72
2022/03/06 09:58:50;;;;;;;14.23;8.57;;;;;;;;;;6206087;28;20054;-72
2022/03/06 10:01:52;;;;;;;10.73;7.70;;;;;;;;;;6208712;28;20124;-72
2022/03/06 10:04:54;;;;;;;12.57;8.25;;;;;;;;;;6207301;28;20576;-72
2022/03/06 10:08:15;;;;;;;14.18;8.60;;;;;;;;;;6205955;28;20048;-72
2022/03/06 10:11:17;;;;;;;13.07;8.55;;;;;;;;;;6205382;28;20050;-73
2022/03/06 10:18:00;;;;;;;12.85;9.25;;;;;;;;;;6279474;27;20659;-73
2022/03/06 10:21:13;;;;;;;15.38;8.70;;;;;;;;;;6253352;28;20050;-73
2022/03/06 10:24:16;;;;;;;12.32;8.52;;;;;;;;;;6247924;28;20120;-71
2022/03/06 10:27:17;;;;;;;12.85;8.80;;;;;;;;;;6244070;28;20099;-75
2022/03/06 10:30:28;;;;;;;13.65;8.57;;;;;;;;;;6235476;28;20136;-74
2022/03/06 10:33:31;;;;;;;13.20;7.95;;;;;;;;;;6234050;28;20137;-75
2022/03/06 10:36:39;;;;;;;14.43;8.73;;;;;;;;;;6250534;28;20046;-75
2022/03/06 10:39:45;;;;;;;12.75;8.70;;;;;;;;;;6251051;28;20531;-75
2022/03/06 10:42:47;;;;;;;12.43;8.68;;;;;;;;;;6245713;28;20100;-76
2022/03/06 10:45:50;;;;;;;12.88;9.23;;;;;;;;;;6233862;28;20171;-75
2022/03/06 10:48:57;;;;;;;11.27;8.40;;;;;;;;;;6233604;28;20050;-75
2022/03/06 10:52:13;;;;;;;12.98;8.82;;;;;;;;;;6229646;28;20045;-76
2022/03/06 10:55:15;;;;;;;14.40;10.18;;;;;;;;;;6231101;28;20061;-76
2022/03/06 10:58:18;;;;;;;13.65;9.85;;;;;;;;;;6231593;28;20132;-76
2022/03/06 11:01:20;;;;;;;12.52;9.32;;;;;;;;;;6224447;28;20502;-76
2022/03/06 11:04:23;;;;;;;14.57;9.52;;;;;;;;;;6222279;28;20127;-76
2022/03/06 11:07:28;;;;;;;13.53;10.07;;;;;;;;;;6227630;28;20054;-75
2022/03/06 11:10:30;;;;;;;12.40;9.35;;;;;;;;;;6247683;28;20057;-76
2022/03/06 11:13:31;;;;;;;14.32;9.35;;;;;;;;;;6249712;28;20354;-75
2022/03/06 11:16:33;;;;;;;12.80;8.35;;;;;;;;;;6248074;28;20054;-75
2022/03/06 11:19:37;;;;;;;12.90;8.68;;;;;;;;;;6276831;28;20222;-75
2022/03/06 11:22:45;;;;;;;13.20;8.82;;;;;;;;;;6291362;28;20049;-75
2022/03/06 11:26:02;;;;;;;12.85;8.80;;;;;;;;;;6288902;28;20045;-76
2022/03/06 11:29:14;;;;;;;16.13;9.07;;;;;;;;;;6273191;28;20073;-75
2022/03/06 11:32:24;;;;;;;12.50;9.20;;;;;;;;;;6264504;28;20049;-76
2022/03/06 11:35:31;;;;;;;12.45;8.55;;;;;;;;;;6259350;28;20182;-75
2022/03/06 11:38:40;;;;;;;12.02;9.48;;;;;;;;;;6259214;28;20400;-77
2022/03/06 11:41:42;;;;;;;13.25;9.15;;;;;;;;;;6256988;28;20052;-75
2022/03/06 11:44:49;;;;;;;12.68;9.02;;;;;;;;;;6264788;28;20037;-75
2022/03/06 11:47:51;;;;;;;12.80;9.23;;;;;;;;;;6280848;28;20423;-75
2022/03/06 11:51:20;;;;;;;12.35;9.25;;;;;;;;;;6282872;28;20115;-75
2022/03/06 11:54:23;;;;;;;12.80;8.85;;;;;;;;;;6279316;28;20044;-71
2022/03/06 11:57:37;;;;;;;12.57;9.33;;;;;;;;;;6277390;28;20552;-70
2022/03/06 12:00:39;;;;;;;12.65;9.05;;;;;;;;;;6270720;28;20056;-72
2022/03/06 12:03:47;;;;;;;16.33;9.68;;;;;;;;;;6269538;28;20128;-72
2022/03/06 12:06:53;;;;;;;11.27;9.05;;;;;;;;;;6266062;28;20195;-74
2022/03/06 12:09:55;;;;;;;13.07;9.05;;;;;;;;;;6265909;28;20205;-73
2022/03/06 12:12:57;;;;;;;16.38;9.50;;;;;;;;;;6262417;28;20455;-74
2022/03/06 12:16:00;;;;;;;13.23;9.48;;;;;;;;;;6263034;28;20049;-70
2022/03/06 12:19:02;;;;;;;11.50;8.65;;;;;;;;;;6263494;28;20052;-70
2022/03/06 12:22:10;;;;;;;13.57;9.43;;;;;;;;;;6269441;28;20085;-70
2022/03/06 12:25:31;;;;;;;13.60;10.00;;;;;;;;;;6268745;28;20132;-70
2022/03/06 12:28:42;;;;;;;13.32;9.85;;;;;;;;;;6284902;28;20616;-67
2022/03/06 12:31:44;;;;;;;14.98;10.43;;;;;;;;;;6279208;28;20047;-72
2022/03/06 12:34:45;;;;;;;17.25;10.13;;;;;;;;;;6276061;28;20059;-71
2022/03/06 12:37:52;;;;;;;13.52;10.13;;;;;;;;;;6266916;28;20113;-69
2022/03/06 12:40:54;;;;;;;12.95;9.77;;;;;;;;;;6266741;28;20568;-71
2022/03/06 12:44:04;;;;;;;15.57;11.18;;;;;;;;;;6266205;28;20118;-71
2022/03/06 12:47:06;;;;;;;14.68;9.90;;;;;;;;;;6264785;28;20127;-71
2022/03/06 12:50:10;;;;;;;14.13;9.55;;;;;;;;;;6258622;28;20046;-69
2022/03/06 12:53:16;;;;;;;14.60;10.10;;;;;;;;;;6261373;28;20055;-70
2022/03/06 12:56:29;;;;;;;13.60;10.35;;;;;;;;;;6267049;28;20118;-69
2022/03/06 12:59:30;;;;;;;13.48;10.43;;;;;;;;;;6267426;28;20045;-70
2022/03/06 13:02:32;;;;;;;14.38;10.27;;;;;;;;;;6267726;28;20109;-69
2022/03/06 13:05:35;;;;;;;13.93;10.85;;;;;;;;;;6262694;28;20132;-72
2022/03/06 13:08:42;;;;;;;15.20;10.85;;;;;;;;;;6280314;28;20406;-72
2022/03/06 13:11:49;;;;;;;16.13;10.65;;;;;;;;;;6275570;28;20485;-73
2022/03/06 13:14:50;;;;;;;19.45;11.73;;;;;;;;;;6275964;28;20199;-68
2022/03/06 13:17:57;;;;;;;12.90;10.07;;;;;;;;;;6269864;28;20536;-68
2022/03/06 13:20:59;;;;;;;14.57;10.48;;;;;;;;;;6266138;28;20540;-70
2022/03/06 13:24:03;;;;;;;13.02;10.65;;;;;;;;;;6261850;28;20044;-71
2022/03/06 13:27:05;;;;;;;16.55;10.93;;;;;;;;;;6257830;28;20053;-70
2022/03/06 13:30:11;;;;;;;13.80;10.65;;;;;;;;;;6269536;28;20056;-71
2022/03/06 13:33:20;;;;;;;14.10;10.40;;;;;;;;;;6273063;28;20094;-71
2022/03/06 13:36:21;;;;;;;13.00;9.88;;;;;;;;;;6270033;28;20048;-71
2022/03/06 13:39:24;;;;;;;14.40;10.80;;;;;;;;;;6263282;28;20187;-71
2022/03/06 13:42:32;;;;;;;17.20;10.30;;;;;;;;;;6264642;28;20115;-71
2022/03/06 13:45:34;;;;;;;14.45;10.68;;;;;;;;;;6262904;28;20040;-71
2022/03/06 13:48:37;;;;;;;15.60;10.60;;;;;;;;;;6276824;28;20217;-71
2022/03/06 13:51:39;;;;;;;12.88;10.80;;;;;;;;;;6271850;28;20177;-71
2022/03/06 13:54:42;;;;;;;14.40;10.75;;;;;;;;;;6272802;28;20049;-71
2022/03/06 13:57:58;;;;;;;13.33;10.73;;;;;;;;;;6266758;28;20064;-71
2022/03/06 14:01:00;;;;;;;12.95;10.45;;;;;;;;;;6263502;28;20837;-71
2022/03/06 14:04:04;;;;;;;12.27;10.00;;;;;;;;;;6271247;28;20119;-70
2022/03/06 14:07:08;;;;;;;14.38;11.07;;;;;;;;;;6275610;28;20049;-71
2022/03/06 14:10:11;;;;;;;;;;;;;;;;;;6273328;28;20074;-71
2022/03/06 14:13:27;;;;;;;13.02;10.60;;;;;;;;;;6268556;28;20383;-73
2022/03/06 14:16:31;;;;;;;14.57;10.38;;;;;;;;;;6266332;28;20507;-71
2022/03/06 14:19:32;;;;;;;15.25;10.93;;;;;;;;;;6264289;28;20495;-71
2022/03/06 14:22:34;;;;;;;16.17;11.18;;;;;;;;;;6254740;28;20198;-71
2022/03/06 14:25:37;;;;;;;12.88;10.23;;;;;;;;;;6253491;28;20464;-71
2022/03/06 14:28:49;;;;;;;16.47;11.43;;;;;;;;;;6272895;28;20064;-71
2022/03/06 14:31:52;;;;;;;15.57;10.23;;;;;;;;;;6266109;28;20128;-71
2022/03/06 14:34:56;;;;;;;14.55;10.55;;;;;;;;;;6266894;28;20041;-71
2022/03/06 14:37:57;;;;;;;12.98;10.70;;;;;;;;;;6262469;28;20041;-71
2022/03/06 14:41:00;;;;;;;12.05;10.10;;;;;;;;;;6277861;28;20097;-71
2022/03/06 14:44:02;;;;;;;16.00;10.40;;;;;;;;;;6273775;28;20151;-71
2022/03/06 14:47:04;;;;;;;16.80;11.35;;;;;;;;;;6267536;28;20562;-71
2022/03/06 14:50:06;;;;;;;17.83;10.80;;;;;;;;;;6266876;28;20053;-71
2022/03/06 14:53:08;;;;;;;16.98;10.60;;;;;;;;;;6265728;28;20045;-68
2022/03/06 14:56:12;;;;;;;16.88;10.70;;;;;;;;;;6262238;28;20045;-73
2022/03/06 14:59:13;;;;;;;;;;;;;;;;;;6261586;28;20152;-73
2022/03/06 15:02:14;;;;;;;13.88;10.82;;;;;;;;;;6256718;28;20426;-74
2022/03/06 15:05:16;;;;;;;13.75;10.00;;;;;;;;;;6259406;28;20627;-74
2022/03/06 15:08:18;;;;;;;14.90;10.45;;;;;;;;;;6274098;28;20067;-74
2022/03/06 15:11:21;;;;;;;14.80;9.73;;;;;;;;;;6272281;28;20076;-74
2022/03/06 15:14:22;;;;;;;15.40;10.93;;;;;;;;;;6282422;28;20131;-74
2022/03/06 15:17:24;;;;;;;17.25;11.43;;;;;;;;;;6281560;28;20109;-73
2022/03/06 15:20:26;;;;;;;16.20;10.43;;;;;;;;;;6276400;28;20479;-73
2022/03/06 15:23:28;;;;;;;16.42;10.63;;;;;;;;;;6276520;28;20580;-75
2022/03/06 15:26:31;;;;;;;16.85;11.02;;;;;;;;;;6274963;28;20140;-74
2022/03/06 15:29:32;;;;;;;18.73;12.87;;;;;;;;;;6266404;28;20141;-74
2022/03/06 15:32:34;;;;;;;16.00;11.57;;;;;;;;;;6265768;28;20041;-73
2022/03/06 15:35:36;;;;;;;16.92;11.18;;;;;;;;;;6260442;28;20049;-73
2022/03/06 15:38:37;;;;;;;17.83;11.85;;;;;;;;;;6258799;28;20104;-76
2022/03/06 15:41:41;;;;;;;17.20;11.20;;;;;;;;;;6254202;28;20044;-73
2022/03/06 15:44:43;;;;;;;14.50;10.48;;;;;;;;;;6250786;28;20054;-74
2022/03/06 15:47:44;;;;;;;14.63;10.73;;;;;;;;;;6273370;28;20055;-74
2022/03/06 15:50:47;;;;;;;52.97;34.20;;;;;;;;;;6285060;28;20457;-72
2022/03/06 15:53:48;;;;;;;33.90;22.70;;;;;;;;;;6274857;28;20052;-71
2022/03/06 15:56:51;;;;;;;17.42;12.30;;;;;;;;;;6270817;28;20396;-73
2022/03/06 15:59:53;;;;;;;15.17;11.03;;;;;;;;;;6275638;28;20496;-73
2022/03/06 16:02:55;;;;;;;15.77;10.77;;;;;;;;;;6272040;28;20051;-74
2022/03/06 16:05:56;;;;;;;15.35;11.25;;;;;;;;;;6267908;28;20143;-72
2022/03/06 16:08:58;;;;;;;15.23;10.77;;;;;;;;;;6267082;28;20531;-73
2022/03/06 16:12:01;;;;;;;14.32;10.85;;;;;;;;;;6259384;28;20554;-74
2022/03/06 16:15:03;;;;;;;14.50;9.65;;;;;;;;;;6259620;28;20180;-73
2022/03/06 16:18:05;;;;;;;13.88;10.68;;;;;;;;;;6256803;28;20049;-73
2022/03/06 16:21:07;;;;;;;16.65;11.48;;;;;;;;;;6250038;28;20124;-75
2022/03/06 16:24:09;;;;;;;14.23;11.02;;;;;;;;;;6259420;28;20119;-75
2022/03/06 16:27:12;;;;;;;15.60;10.70;;;;;;;;;;6273842;28;20048;-72
2022/03/06 16:30:15;;;;;;;14.88;10.57;;;;;;;;;;6278490;28;20079;-73
2022/03/06 16:33:17;;;;;;;16.80;10.20;;;;;;;;;;6280909;28;20395;-74
2022/03/06 16:36:18;;;;;;;17.90;10.68;;;;;;;;;;6278010;28;20095;-73
2022/03/06 16:39:20;;;;;;;15.50;10.70;;;;;;;;;;6270056;28;20488;-73
2022/03/06 16:42:23;;;;;;;14.88;10.80;;;;;;;;;;6269207;28;20045;-73
2022/03/06 16:45:25;;;;;;;15.85;11.25;;;;;;;;;;6261973;28;20127;-74
2022/03/06 16:48:28;;;;;;;15.98;10.85;;;;;;;;;;6261765;28;20811;-73
2022/03/06 16:51:29;;;;;;;17.73;11.10;;;;;;;;;;6257557;28;20126;-73
2022/03/06 16:54:31;;;;;;;18.50;11.25;;;;;;;;;;6258033;28;20123;-73
2022/03/06 16:57:34;;;;;;;16.30;10.63;;;;;;;;;;6261098;28;20076;-74
2022/03/06 17:00:36;;;;;;;16.23;10.20;;;;;;;;;;6278805;28;20150;-74
2022/03/06 17:03:37;;;;;;;20.95;10.15;;;;;;;;;;6266362;28;20575;-74
2022/03/06 17:06:39;;;;;;;15.93;9.80;;;;;;;;;;6273514;28;20098;-73
2022/03/06 17:09:40;;;;;;;19.45;11.18;;;;;;;;;;6273158;28;20381;-74
2022/03/06 17:12:44;;;;;;;17.80;9.80;;;;;;;;;;6277152;28;20048;-75
2022/03/06 17:15:45;;;;;;;17.93;10.53;;;;;;;;;;6275180;28;20150;-74
2022/03/06 17:18:47;;;;;;;18.15;10.50;;;;;;;;;;6272460;28;20178;-73
2022/03/06 17:21:48;;;;;;;21.90;10.77;;;;;;;;;;6265106;28;20038;-73
2022/03/06 17:24:50;;;;;;;16.92;10.45;;;;;;;;;;6265061;28;20049;-73
2022/03/06 17:27:53;;;;;;;19.42;12.18;;;;;;;;;;6258960;28;20046;-75
2022/03/06 17:30:54;;;;;;;18.77;10.80;;;;;;;;;;6256936;28;20067;-73
2022/03/06 17:33:57;;;;;;;17.65;11.25;;;;;;;;;;6265714;28;20167;-74
2022/03/06 17:36:59;;;;;;;17.13;11.48;;;;;;;;;;6274133;28;20110;-74
2022/03/06 17:40:00;;;;;;;16.25;10.65;;;;;;;;;;6268973;28;20152;-73
2022/03/06 17:43:05;;;;;;;18.02;11.52;;;;;;;;;;6264744;28;20048;-73
2022/03/06 17:46:08;;;;;;;18.20;10.18;;;;;;;;;;6266410;28;20195;-73
2022/03/06 17:49:09;;;;;;;17.88;10.63;;;;;;;;;;6277253;28;20179;-74
2022/03/06 17:52:11;;;;;;;17.98;11.55;;;;;;;;;;6277671;28;20059;-73